sensor_id;sensor_type;location;lat;lon;timestamp;P1;durP1;ratioP1;P2;durP2;ratioP2
62880;SDS011;48969;49.934;8.596;2023-02-22T00:01:41;5.65;;;3.97;;
62880;SDS011;48969;49.934;8.596;2023-02-22T00:04:14;4.07;;;2.85;;
62880;SDS011;48969;49.934;8.596;2023-02-22T00:06:44;13.27;;;10.43;;
62880;SDS011;48969;49.934;8.596;2023-02-22T00:09:09;1.85;;;1.50;;
62880;SDS011;48969;49.934;8.596;2023-02-22T00:11:34;6.40;;;3.30;;
62880;SDS011;48969;49.934;8.596;2023-02-22T00:13:59;13.48;;;11.15;;
62880;SDS011;48969;49.934;8.596;2023-02-22T00:16:26;2.05;;;1.88;;
62880;SDS011;48969;49.934;8.596;2023-02-22T00:18:52;3.65;;;2.63;;
62880;SDS011;48969;49.934;8.596;2023-02-22T00:21:17;4.72;;;2.25;;
62880;SDS011;48969;49.934;8.596;2023-02-22T00:23:44;4.82;;;2.30;;
62880;SDS011;48969;49.934;8.596;2023-02-22T00:26:16;5.00;;;2.63;;
62880;SDS011;48969;49.934;8.596;2023-02-22T00:28:43;3.67;;;2.45;;
62880;SDS011;48969;49.934;8.596;2023-02-22T00:31:08;3.78;;;3.15;;
62880;SDS011;48969;49.934;8.596;2023-02-22T00:33:34;12.72;;;10.50;;
62880;SDS011;48969;49.934;8.596;2023-02-22T00:36:00;5.90;;;2.63;;
62880;SDS011;48969;49.934;8.596;2023-02-22T00:38:25;4.07;;;2.83;;
62880;SDS011;48969;49.934;8.596;2023-02-22T00:40:50;3.08;;;2.47;;
62880;SDS011;48969;49.934;8.596;2023-02-22T00:43:16;3.06;;;2.40;;
62880;SDS011;48969;49.934;8.596;2023-02-22T00:45:41;3.24;;;2.46;;
62880;SDS011;48969;49.934;8.596;2023-02-22T00:48:06;8.30;;;3.17;;
62880;SDS011;48969;49.934;8.596;2023-02-22T00:50:32;13.38;;;11.40;;
62880;SDS011;48969;49.934;8.596;2023-02-22T00:52:58;3.85;;;2.47;;
62880;SDS011;48969;49.934;8.596;2023-02-22T00:55:28;6.35;;;3.55;;
62880;SDS011;48969;49.934;8.596;2023-02-22T00:57:54;3.80;;;2.67;;
62880;SDS011;48969;49.934;8.596;2023-02-22T01:00:22;6.70;;;3.70;;
62880;SDS011;48969;49.934;8.596;2023-02-22T01:02:47;4.57;;;3.20;;
62880;SDS011;48969;49.934;8.596;2023-02-22T01:05:16;3.25;;;2.88;;
62880;SDS011;48969;49.934;8.596;2023-02-22T01:07:41;6.50;;;3.47;;
62880;SDS011;48969;49.934;8.596;2023-02-22T01:10:07;6.40;;;2.92;;
62880;SDS011;48969;49.934;8.596;2023-02-22T01:12:33;3.28;;;2.78;;
62880;SDS011;48969;49.934;8.596;2023-02-22T01:14:58;6.50;;;2.90;;
62880;SDS011;48969;49.934;8.596;2023-02-22T01:17:23;5.53;;;4.00;;
62880;SDS011;48969;49.934;8.596;2023-02-22T01:19:49;5.05;;;3.83;;
62880;SDS011;48969;49.934;8.596;2023-02-22T01:22:14;16.10;;;14.02;;
62880;SDS011;48969;49.934;8.596;2023-02-22T01:24:39;6.93;;;3.58;;
62880;SDS011;48969;49.934;8.596;2023-02-22T01:27:04;2.90;;;2.67;;
62880;SDS011;48969;49.934;8.596;2023-02-22T01:29:29;6.25;;;3.08;;
62880;SDS011;48969;49.934;8.596;2023-02-22T01:31:55;3.84;;;2.78;;
62880;SDS011;48969;49.934;8.596;2023-02-22T01:34:20;4.95;;;3.03;;
62880;SDS011;48969;49.934;8.596;2023-02-22T01:36:46;4.30;;;3.90;;
62880;SDS011;48969;49.934;8.596;2023-02-22T01:39:11;16.20;;;13.43;;
62880;SDS011;48969;49.934;8.596;2023-02-22T01:41:36;5.00;;;3.38;;
62880;SDS011;48969;49.934;8.596;2023-02-22T01:44:19;5.85;;;4.10;;
62880;SDS011;48969;49.934;8.596;2023-02-22T01:46:45;5.32;;;2.88;;
62880;SDS011;48969;49.934;8.596;2023-02-22T01:49:10;6.20;;;3.70;;
62880;SDS011;48969;49.934;8.596;2023-02-22T01:51:37;5.68;;;2.40;;
62880;SDS011;48969;49.934;8.596;2023-02-22T01:56:30;5.00;;;2.90;;
62880;SDS011;48969;49.934;8.596;2023-02-22T01:59:04;17.48;;;14.00;;
62880;SDS011;48969;49.934;8.596;2023-02-22T02:01:33;3.38;;;3.03;;
62880;SDS011;48969;49.934;8.596;2023-02-22T02:04:00;5.35;;;2.40;;
62880;SDS011;48969;49.934;8.596;2023-02-22T02:06:27;15.60;;;13.35;;
62880;SDS011;48969;49.934;8.596;2023-02-22T02:11:20;3.63;;;2.45;;
62880;SDS011;48969;49.934;8.596;2023-02-22T02:13:48;11.02;;;3.95;;
62880;SDS011;48969;49.934;8.596;2023-02-22T02:16:13;18.13;;;14.07;;
62880;SDS011;48969;49.934;8.596;2023-02-22T02:18:38;3.58;;;3.05;;
62880;SDS011;48969;49.934;8.596;2023-02-22T02:21:14;14.77;;;12.52;;
62880;SDS011;48969;49.934;8.596;2023-02-22T02:26:44;3.38;;;3.08;;
62880;SDS011;48969;49.934;8.596;2023-02-22T02:29:29;5.80;;;4.05;;
62880;SDS011;48969;49.934;8.596;2023-02-22T02:34:36;4.45;;;3.65;;
62880;SDS011;48969;49.934;8.596;2023-02-22T02:37:11;6.57;;;3.15;;
62880;SDS011;48969;49.934;8.596;2023-02-22T02:39:47;9.98;;;4.32;;
62880;SDS011;48969;49.934;8.596;2023-02-22T02:42:15;4.53;;;3.67;;
62880;SDS011;48969;49.934;8.596;2023-02-22T02:44:46;5.05;;;3.28;;
62880;SDS011;48969;49.934;8.596;2023-02-22T02:47:15;5.18;;;2.95;;
62880;SDS011;48969;49.934;8.596;2023-02-22T02:52:13;7.15;;;4.30;;
62880;SDS011;48969;49.934;8.596;2023-02-22T02:54:40;16.90;;;15.07;;
62880;SDS011;48969;49.934;8.596;2023-02-22T02:57:05;6.80;;;4.00;;
62880;SDS011;48969;49.934;8.596;2023-02-22T02:59:34;5.50;;;4.60;;
62880;SDS011;48969;49.934;8.596;2023-02-22T03:18:24;16.55;;;14.30;;
62880;SDS011;48969;49.934;8.596;2023-02-22T03:21:00;9.85;;;3.55;;
62880;SDS011;48969;49.934;8.596;2023-02-22T03:23:34;7.78;;;4.43;;
62880;SDS011;48969;49.934;8.596;2023-02-22T03:26:12;11.00;;;3.92;;
62880;SDS011;48969;49.934;8.596;2023-02-22T03:28:39;7.25;;;5.32;;
62880;SDS011;48969;49.934;8.596;2023-02-22T03:31:10;17.05;;;14.80;;
62880;SDS011;48969;49.934;8.596;2023-02-22T03:33:40;15.05;;;13.52;;
62880;SDS011;48969;49.934;8.596;2023-02-22T03:36:08;9.05;;;4.55;;
62880;SDS011;48969;49.934;8.596;2023-02-22T03:38:36;4.35;;;3.90;;
62880;SDS011;48969;49.934;8.596;2023-02-22T03:41:02;7.55;;;4.55;;
62880;SDS011;48969;49.934;8.596;2023-02-22T03:43:30;5.93;;;4.18;;
62880;SDS011;48969;49.934;8.596;2023-02-22T03:45:58;19.05;;;16.40;;
62880;SDS011;48969;49.934;8.596;2023-02-22T03:48:26;6.18;;;2.92;;
62880;SDS011;48969;49.934;8.596;2023-02-22T03:50:54;5.10;;;3.80;;
62880;SDS011;48969;49.934;8.596;2023-02-22T03:53:22;8.80;;;4.97;;
62880;SDS011;48969;49.934;8.596;2023-02-22T03:55:47;5.90;;;4.38;;
62880;SDS011;48969;49.934;8.596;2023-02-22T03:58:15;8.23;;;4.78;;
62880;SDS011;48969;49.934;8.596;2023-02-22T04:00:42;7.22;;;4.20;;
62880;SDS011;48969;49.934;8.596;2023-02-22T04:03:08;19.98;;;15.57;;
62880;SDS011;48969;49.934;8.596;2023-02-22T04:05:34;10.05;;;6.30;;
62880;SDS011;48969;49.934;8.596;2023-02-22T04:07:59;8.90;;;5.18;;
62880;SDS011;48969;49.934;8.596;2023-02-22T04:10:24;8.60;;;4.28;;
62880;SDS011;48969;49.934;8.596;2023-02-22T04:12:49;8.80;;;5.05;;
62880;SDS011;48969;49.934;8.596;2023-02-22T04:15:16;10.77;;;5.22;;
62880;SDS011;48969;49.934;8.596;2023-02-22T04:17:41;9.63;;;4.20;;
62880;SDS011;48969;49.934;8.596;2023-02-22T04:20:07;7.68;;;4.32;;
62880;SDS011;48969;49.934;8.596;2023-02-22T04:22:32;6.28;;;4.40;;
62880;SDS011;48969;49.934;8.596;2023-02-22T04:24:57;16.73;;;14.85;;
62880;SDS011;48969;49.934;8.596;2023-02-22T04:27:22;4.32;;;3.95;;
62880;SDS011;48969;49.934;8.596;2023-02-22T04:29:48;10.82;;;5.60;;
62880;SDS011;48969;49.934;8.596;2023-02-22T04:32:13;19.00;;;16.17;;
62880;SDS011;48969;49.934;8.596;2023-02-22T04:34:39;8.50;;;4.50;;
62880;SDS011;48969;49.934;8.596;2023-02-22T04:37:04;5.95;;;4.13;;
62880;SDS011;48969;49.934;8.596;2023-02-22T04:39:29;4.50;;;3.95;;
62880;SDS011;48969;49.934;8.596;2023-02-22T04:41:54;5.95;;;3.75;;
62880;SDS011;48969;49.934;8.596;2023-02-22T04:44:20;17.77;;;15.88;;
62880;SDS011;48969;49.934;8.596;2023-02-22T04:46:45;5.60;;;4.15;;
62880;SDS011;48969;49.934;8.596;2023-02-22T04:49:10;9.90;;;5.43;;
62880;SDS011;48969;49.934;8.596;2023-02-22T04:51:36;3.92;;;3.58;;
62880;SDS011;48969;49.934;8.596;2023-02-22T04:54:01;5.20;;;3.58;;
62880;SDS011;48969;49.934;8.596;2023-02-22T04:56:26;5.43;;;3.70;;
62880;SDS011;48969;49.934;8.596;2023-02-22T04:58:51;7.57;;;4.63;;
62880;SDS011;48969;49.934;8.596;2023-02-22T05:01:16;5.76;;;3.60;;
62880;SDS011;48969;49.934;8.596;2023-02-22T05:03:42;4.15;;;3.15;;
62880;SDS011;48969;49.934;8.596;2023-02-22T05:06:07;11.80;;;4.93;;
62880;SDS011;48969;49.934;8.596;2023-02-22T05:08:32;4.43;;;3.83;;
62880;SDS011;48969;49.934;8.596;2023-02-22T05:10:58;3.75;;;2.85;;
62880;SDS011;48969;49.934;8.596;2023-02-22T05:13:23;18.45;;;16.15;;
62880;SDS011;48969;49.934;8.596;2023-02-22T05:15:48;4.13;;;3.65;;
62880;SDS011;48969;49.934;8.596;2023-02-22T05:18:13;5.00;;;3.00;;
62880;SDS011;48969;49.934;8.596;2023-02-22T05:20:39;18.13;;;16.15;;
62880;SDS011;48969;49.934;8.596;2023-02-22T05:23:04;3.65;;;3.30;;
62880;SDS011;48969;49.934;8.596;2023-02-22T05:25:29;6.63;;;3.72;;
62880;SDS011;48969;49.934;8.596;2023-02-22T05:27:56;6.78;;;4.82;;
62880;SDS011;48969;49.934;8.596;2023-02-22T05:30:23;6.50;;;4.78;;
62880;SDS011;48969;49.934;8.596;2023-02-22T05:32:49;7.07;;;4.38;;
62880;SDS011;48969;49.934;8.596;2023-02-22T05:35:14;9.10;;;5.35;;
62880;SDS011;48969;49.934;8.596;2023-02-22T05:37:40;16.88;;;14.90;;
62880;SDS011;48969;49.934;8.596;2023-02-22T05:40:05;7.05;;;4.53;;
62880;SDS011;48969;49.934;8.596;2023-02-22T05:42:31;4.65;;;3.50;;
62880;SDS011;48969;49.934;8.596;2023-02-22T05:44:56;3.50;;;3.03;;
62880;SDS011;48969;49.934;8.596;2023-02-22T05:47:22;3.60;;;3.30;;
62880;SDS011;48969;49.934;8.596;2023-02-22T05:49:47;6.13;;;4.82;;
62880;SDS011;48969;49.934;8.596;2023-02-22T05:52:12;4.88;;;3.05;;
62880;SDS011;48969;49.934;8.596;2023-02-22T05:54:37;4.38;;;3.97;;
62880;SDS011;48969;49.934;8.596;2023-02-22T05:57:02;3.42;;;2.88;;
62880;SDS011;48969;49.934;8.596;2023-02-22T05:59:28;17.02;;;15.00;;
62880;SDS011;48969;49.934;8.596;2023-02-22T06:01:54;6.78;;;2.97;;
62880;SDS011;48969;49.934;8.596;2023-02-22T06:04:24;4.68;;;3.74;;
62880;SDS011;48969;49.934;8.596;2023-02-22T06:06:49;5.85;;;3.65;;
62880;SDS011;48969;49.934;8.596;2023-02-22T06:09:14;4.00;;;3.60;;
62880;SDS011;48969;49.934;8.596;2023-02-22T06:11:40;11.05;;;5.90;;
62880;SDS011;48969;49.934;8.596;2023-02-22T06:14:05;4.53;;;3.70;;
62880;SDS011;48969;49.934;8.596;2023-02-22T06:16:30;6.47;;;4.28;;
62880;SDS011;48969;49.934;8.596;2023-02-22T06:18:55;6.30;;;4.97;;
62880;SDS011;48969;49.934;8.596;2023-02-22T06:21:21;16.52;;;14.82;;
62880;SDS011;48969;49.934;8.596;2023-02-22T06:23:46;18.48;;;16.58;;
62880;SDS011;48969;49.934;8.596;2023-02-22T06:26:11;6.26;;;3.62;;
62880;SDS011;48969;49.934;8.596;2023-02-22T06:28:39;6.80;;;3.80;;
62880;SDS011;48969;49.934;8.596;2023-02-22T06:31:04;9.10;;;4.32;;
62880;SDS011;48969;49.934;8.596;2023-02-22T06:33:29;8.02;;;5.47;;
62880;SDS011;48969;49.934;8.596;2023-02-22T06:35:54;9.50;;;5.60;;
62880;SDS011;48969;49.934;8.596;2023-02-22T06:38:21;17.60;;;15.80;;
62880;SDS011;48969;49.934;8.596;2023-02-22T06:40:46;6.22;;;4.00;;
62880;SDS011;48969;49.934;8.596;2023-02-22T06:43:11;17.34;;;15.54;;
62880;SDS011;48969;49.934;8.596;2023-02-22T06:45:36;8.77;;;5.63;;
62880;SDS011;48969;49.934;8.596;2023-02-22T06:48:02;5.60;;;3.97;;
62880;SDS011;48969;49.934;8.596;2023-02-22T06:50:28;7.25;;;4.20;;
62880;SDS011;48969;49.934;8.596;2023-02-22T06:52:54;15.60;;;13.98;;
62880;SDS011;48969;49.934;8.596;2023-02-22T06:55:26;16.48;;;13.77;;
62880;SDS011;48969;49.934;8.596;2023-02-22T07:00:17;8.57;;;4.22;;
62880;SDS011;48969;49.934;8.596;2023-02-22T07:02:43;5.15;;;4.38;;
62880;SDS011;48969;49.934;8.596;2023-02-22T07:05:09;5.75;;;4.22;;
62880;SDS011;48969;49.934;8.596;2023-02-22T07:07:34;9.48;;;5.50;;
62880;SDS011;48969;49.934;8.596;2023-02-22T07:09:59;18.42;;;15.38;;
62880;SDS011;48969;49.934;8.596;2023-02-22T07:12:26;19.50;;;16.58;;
62880;SDS011;48969;49.934;8.596;2023-02-22T07:14:53;11.15;;;4.95;;
62880;SDS011;48969;49.934;8.596;2023-02-22T07:17:18;19.50;;;16.38;;
62880;SDS011;48969;49.934;8.596;2023-02-22T07:19:43;19.77;;;16.02;;
62880;SDS011;48969;49.934;8.596;2023-02-22T07:22:09;9.20;;;4.45;;
62880;SDS011;48969;49.934;8.596;2023-02-22T07:24:34;18.60;;;16.60;;
62880;SDS011;48969;49.934;8.596;2023-02-22T07:26:59;6.30;;;4.38;;
62880;SDS011;48969;49.934;8.596;2023-02-22T07:29:25;7.13;;;4.05;;
62880;SDS011;48969;49.934;8.596;2023-02-22T07:31:50;12.20;;;8.32;;
62880;SDS011;48969;49.934;8.596;2023-02-22T07:34:15;26.17;;;23.20;;
62880;SDS011;48969;49.934;8.596;2023-02-22T07:36:40;12.57;;;5.72;;
62880;SDS011;48969;49.934;8.596;2023-02-22T07:39:05;9.86;;;6.74;;
62880;SDS011;48969;49.934;8.596;2023-02-22T07:41:33;9.45;;;5.35;;
62880;SDS011;48969;49.934;8.596;2023-02-22T07:43:58;20.17;;;18.00;;
62880;SDS011;48969;49.934;8.596;2023-02-22T07:46:23;4.18;;;3.78;;
62880;SDS011;48969;49.934;8.596;2023-02-22T07:48:48;7.88;;;5.82;;
62880;SDS011;48969;49.934;8.596;2023-02-22T07:51:14;6.28;;;4.25;;
62880;SDS011;48969;49.934;8.596;2023-02-22T07:53:40;20.48;;;18.25;;
62880;SDS011;48969;49.934;8.596;2023-02-22T07:56:05;7.50;;;4.75;;
62880;SDS011;48969;49.934;8.596;2023-02-22T07:58:32;9.57;;;4.68;;
62880;SDS011;48969;49.934;8.596;2023-02-22T08:00:59;17.50;;;15.60;;
62880;SDS011;48969;49.934;8.596;2023-02-22T08:03:29;17.63;;;15.85;;
62880;SDS011;48969;49.934;8.596;2023-02-22T08:05:55;17.08;;;15.23;;
62880;SDS011;48969;49.934;8.596;2023-02-22T08:08:20;6.22;;;4.90;;
62880;SDS011;48969;49.934;8.596;2023-02-22T08:10:46;17.38;;;15.68;;
62880;SDS011;48969;49.934;8.596;2023-02-22T08:13:11;7.72;;;4.93;;
62880;SDS011;48969;49.934;8.596;2023-02-22T08:15:38;5.82;;;3.85;;
62880;SDS011;48969;49.934;8.596;2023-02-22T08:18:08;8.32;;;5.30;;
62880;SDS011;48969;49.934;8.596;2023-02-22T08:20:34;16.90;;;15.30;;
62880;SDS011;48969;49.934;8.596;2023-02-22T08:22:59;9.38;;;4.65;;
62880;SDS011;48969;49.934;8.596;2023-02-22T08:25:26;17.55;;;15.75;;
62880;SDS011;48969;49.934;8.596;2023-02-22T08:27:52;17.92;;;16.20;;
62880;SDS011;48969;49.934;8.596;2023-02-22T08:30:22;6.65;;;4.45;;
62880;SDS011;48969;49.934;8.596;2023-02-22T08:32:48;6.63;;;5.32;;
62880;SDS011;48969;49.934;8.596;2023-02-22T08:35:15;18.73;;;16.92;;
62880;SDS011;48969;49.934;8.596;2023-02-22T08:37:41;9.02;;;5.65;;
62880;SDS011;48969;49.934;8.596;2023-02-22T08:40:07;18.60;;;16.83;;
62880;SDS011;48969;49.934;8.596;2023-02-22T08:42:32;18.20;;;16.40;;
62880;SDS011;48969;49.934;8.596;2023-02-22T08:44:57;9.30;;;5.35;;
62880;SDS011;48969;49.934;8.596;2023-02-22T08:47:23;19.02;;;17.02;;
62880;SDS011;48969;49.934;8.596;2023-02-22T08:49:48;26.73;;;24.33;;
62880;SDS011;48969;49.934;8.596;2023-02-22T08:52:13;7.38;;;4.97;;
62880;SDS011;48969;49.934;8.596;2023-02-22T08:54:38;7.10;;;5.45;;
62880;SDS011;48969;49.934;8.596;2023-02-22T08:57:03;8.93;;;5.32;;
62880;SDS011;48969;49.934;8.596;2023-02-22T08:59:31;19.10;;;17.30;;
62880;SDS011;48969;49.934;8.596;2023-02-22T09:01:56;19.02;;;17.23;;
62880;SDS011;48969;49.934;8.596;2023-02-22T09:04:21;20.60;;;18.42;;
62880;SDS011;48969;49.934;8.596;2023-02-22T09:06:46;5.45;;;4.03;;
62880;SDS011;48969;49.934;8.596;2023-02-22T09:09:15;9.80;;;5.72;;
62880;SDS011;48969;49.934;8.596;2023-02-22T09:11:43;20.38;;;17.92;;
62880;SDS011;48969;49.934;8.596;2023-02-22T09:14:08;19.05;;;17.25;;
62880;SDS011;48969;49.934;8.596;2023-02-22T09:16:34;19.63;;;17.52;;
62880;SDS011;48969;49.934;8.596;2023-02-22T09:19:02;19.45;;;17.45;;
62880;SDS011;48969;49.934;8.596;2023-02-22T09:21:27;18.73;;;16.92;;
62880;SDS011;48969;49.934;8.596;2023-02-22T09:23:53;18.60;;;16.67;;
62880;SDS011;48969;49.934;8.596;2023-02-22T09:26:18;21.80;;;19.60;;
62880;SDS011;48969;49.934;8.596;2023-02-22T09:28:43;13.75;;;7.82;;
62880;SDS011;48969;49.934;8.596;2023-02-22T09:31:09;23.35;;;21.00;;
62880;SDS011;48969;49.934;8.596;2023-02-22T09:33:34;21.95;;;19.80;;
62880;SDS011;48969;49.934;8.596;2023-02-22T09:35:59;24.13;;;21.65;;
62880;SDS011;48969;49.934;8.596;2023-02-22T09:38:26;23.48;;;21.02;;
62880;SDS011;48969;49.934;8.596;2023-02-22T09:40:56;23.75;;;21.35;;
62880;SDS011;48969;49.934;8.596;2023-02-22T09:48:39;20.27;;;18.40;;
62880;SDS011;48969;49.934;8.596;2023-02-22T09:51:10;19.73;;;17.83;;
62880;SDS011;48969;49.934;8.596;2023-02-22T09:53:40;19.70;;;17.60;;
62880;SDS011;48969;49.934;8.596;2023-02-22T09:56:13;19.73;;;17.80;;
62880;SDS011;48969;49.934;8.596;2023-02-22T09:58:46;19.40;;;17.30;;
62880;SDS011;48969;49.934;8.596;2023-02-22T10:04:03;18.73;;;16.92;;
62880;SDS011;48969;49.934;8.596;2023-02-22T10:06:24;20.20;;;18.30;;
62880;SDS011;48969;49.934;8.596;2023-02-22T10:08:54;19.20;;;17.35;;
62880;SDS011;48969;49.934;8.596;2023-02-22T10:27:43;22.60;;;20.40;;
62880;SDS011;48969;49.934;8.596;2023-02-22T10:30:19;24.23;;;21.67;;
62880;SDS011;48969;49.934;8.596;2023-02-22T10:32:45;22.95;;;20.60;;
62880;SDS011;48969;49.934;8.596;2023-02-22T10:35:22;23.58;;;21.38;;
62880;SDS011;48969;49.934;8.596;2023-02-22T10:37:49;23.55;;;21.25;;
62880;SDS011;48969;49.934;8.596;2023-02-22T10:40:18;23.35;;;21.02;;
62880;SDS011;48969;49.934;8.596;2023-02-22T10:42:47;24.83;;;22.48;;
62880;SDS011;48969;49.934;8.596;2023-02-22T10:45:28;26.35;;;23.95;;
62880;SDS011;48969;49.934;8.596;2023-02-22T10:47:56;23.85;;;21.65;;
62880;SDS011;48969;49.934;8.596;2023-02-22T10:50:23;26.83;;;24.30;;
62880;SDS011;48969;49.934;8.596;2023-02-22T10:52:48;25.35;;;22.95;;
62880;SDS011;48969;49.934;8.596;2023-02-22T10:55:14;23.98;;;21.75;;
62880;SDS011;48969;49.934;8.596;2023-02-22T10:57:39;24.98;;;22.55;;
62880;SDS011;48969;49.934;8.596;2023-02-22T11:03:17;25.20;;;22.80;;
62880;SDS011;48969;49.934;8.596;2023-02-22T11:05:42;24.55;;;22.20;;
62880;SDS011;48969;49.934;8.596;2023-02-22T11:08:15;25.95;;;23.45;;
62880;SDS011;48969;49.934;8.596;2023-02-22T11:10:40;26.55;;;23.92;;
62880;SDS011;48969;49.934;8.596;2023-02-22T11:15:54;26.85;;;24.30;;
62880;SDS011;48969;49.934;8.596;2023-02-22T11:18:26;26.80;;;24.08;;
62880;SDS011;48969;49.934;8.596;2023-02-22T11:20:59;26.80;;;24.25;;
62880;SDS011;48969;49.934;8.596;2023-02-22T11:23:25;28.10;;;25.40;;
62880;SDS011;48969;49.934;8.596;2023-02-22T11:25:50;26.85;;;24.35;;
62880;SDS011;48969;49.934;8.596;2023-02-22T11:28:27;26.52;;;24.00;;
62880;SDS011;48969;49.934;8.596;2023-02-22T11:30:57;26.17;;;23.75;;
62880;SDS011;48969;49.934;8.596;2023-02-22T11:33:32;25.25;;;22.92;;
62880;SDS011;48969;49.934;8.596;2023-02-22T11:35:58;27.67;;;24.98;;
62880;SDS011;48969;49.934;8.596;2023-02-22T11:38:25;27.50;;;24.85;;
62880;SDS011;48969;49.934;8.596;2023-02-22T11:43:34;26.23;;;23.63;;
62880;SDS011;48969;49.934;8.596;2023-02-22T11:46:04;26.17;;;23.58;;
62880;SDS011;48969;49.934;8.596;2023-02-22T11:48:36;26.05;;;23.63;;
62880;SDS011;48969;49.934;8.596;2023-02-22T11:58:49;26.42;;;24.05;;
62880;SDS011;48969;49.934;8.596;2023-02-22T12:03:49;27.30;;;24.67;;
62880;SDS011;48969;49.934;8.596;2023-02-22T12:17:02;28.67;;;25.88;;
62880;SDS011;48969;49.934;8.596;2023-02-22T12:19:36;26.38;;;24.02;;
62880;SDS011;48969;49.934;8.596;2023-02-22T12:22:07;27.60;;;25.02;;
62880;SDS011;48969;49.934;8.596;2023-02-22T12:25:17;27.48;;;24.70;;
62880;SDS011;48969;49.934;8.596;2023-02-22T12:27:24;27.38;;;24.55;;
62880;SDS011;48969;49.934;8.596;2023-02-22T12:29:57;27.08;;;24.48;;
62880;SDS011;48969;49.934;8.596;2023-02-22T12:35:43;26.00;;;23.45;;
62880;SDS011;48969;49.934;8.596;2023-02-22T12:38:14;27.98;;;25.30;;
62880;SDS011;48969;49.934;8.596;2023-02-22T12:43:14;28.73;;;25.73;;
62880;SDS011;48969;49.934;8.596;2023-02-22T12:48:36;27.35;;;24.58;;
62880;SDS011;48969;49.934;8.596;2023-02-22T12:53:39;27.05;;;24.45;;
62880;SDS011;48969;49.934;8.596;2023-02-22T12:58:38;26.73;;;24.00;;
62880;SDS011;48969;49.934;8.596;2023-02-22T13:01:17;26.15;;;23.75;;
62880;SDS011;48969;49.934;8.596;2023-02-22T13:03:44;25.52;;;23.15;;
62880;SDS011;48969;49.934;8.596;2023-02-22T13:06:13;26.73;;;24.13;;
62880;SDS011;48969;49.934;8.596;2023-02-22T13:11:25;26.95;;;24.45;;
62880;SDS011;48969;49.934;8.596;2023-02-22T13:21:24;26.73;;;24.23;;
62880;SDS011;48969;49.934;8.596;2023-02-22T13:23:54;27.52;;;24.92;;
62880;SDS011;48969;49.934;8.596;2023-02-22T13:41:30;26.02;;;23.65;;
62880;SDS011;48969;49.934;8.596;2023-02-22T13:52:07;28.20;;;25.42;;
62880;SDS011;48969;49.934;8.596;2023-02-22T13:57:15;27.63;;;24.90;;
62880;SDS011;48969;49.934;8.596;2023-02-22T13:59:41;29.50;;;26.55;;
62880;SDS011;48969;49.934;8.596;2023-02-22T14:02:12;27.95;;;25.25;;
62880;SDS011;48969;49.934;8.596;2023-02-22T14:04:51;27.77;;;25.13;;
62880;SDS011;48969;49.934;8.596;2023-02-22T14:09:54;29.50;;;24.85;;
62880;SDS011;48969;49.934;8.596;2023-02-22T14:18:17;28.42;;;25.42;;
62880;SDS011;48969;49.934;8.596;2023-02-22T14:22:55;27.75;;;25.05;;
62880;SDS011;48969;49.934;8.596;2023-02-22T14:25:39;28.13;;;25.33;;
62880;SDS011;48969;49.934;8.596;2023-02-22T14:28:31;28.15;;;25.23;;
62880;SDS011;48969;49.934;8.596;2023-02-22T14:31:03;28.27;;;25.48;;
62880;SDS011;48969;49.934;8.596;2023-02-22T14:36:13;28.92;;;25.88;;
62880;SDS011;48969;49.934;8.596;2023-02-22T14:38:38;28.98;;;26.02;;
62880;SDS011;48969;49.934;8.596;2023-02-22T14:41:03;29.35;;;26.50;;
62880;SDS011;48969;49.934;8.596;2023-02-22T14:43:29;28.92;;;26.02;;
62880;SDS011;48969;49.934;8.596;2023-02-22T14:45:55;29.73;;;26.63;;
62880;SDS011;48969;49.934;8.596;2023-02-22T14:48:26;28.25;;;25.45;;
62880;SDS011;48969;49.934;8.596;2023-02-22T14:50:53;28.63;;;25.92;;
62880;SDS011;48969;49.934;8.596;2023-02-22T14:53:29;30.35;;;27.45;;
62880;SDS011;48969;49.934;8.596;2023-02-22T14:55:59;30.38;;;27.30;;
62880;SDS011;48969;49.934;8.596;2023-02-22T14:58:32;30.35;;;27.17;;
62880;SDS011;48969;49.934;8.596;2023-02-22T15:00:58;30.05;;;27.13;;
62880;SDS011;48969;49.934;8.596;2023-02-22T15:08:24;30.15;;;27.10;;
62880;SDS011;48969;49.934;8.596;2023-02-22T15:10:52;29.17;;;26.17;;
62880;SDS011;48969;49.934;8.596;2023-02-22T15:13:22;29.20;;;26.40;;
62880;SDS011;48969;49.934;8.596;2023-02-22T15:15:53;28.30;;;25.50;;
62880;SDS011;48969;49.934;8.596;2023-02-22T15:18:20;29.75;;;26.75;;
62880;SDS011;48969;49.934;8.596;2023-02-22T15:20:46;27.73;;;25.02;;
62880;SDS011;48969;49.934;8.596;2023-02-22T15:23:13;28.98;;;26.00;;
62880;SDS011;48969;49.934;8.596;2023-02-22T15:25:38;28.45;;;25.65;;
62880;SDS011;48969;49.934;8.596;2023-02-22T15:28:06;29.73;;;26.73;;
62880;SDS011;48969;49.934;8.596;2023-02-22T15:30:33;28.90;;;26.05;;
62880;SDS011;48969;49.934;8.596;2023-02-22T15:33:12;29.13;;;26.08;;
62880;SDS011;48969;49.934;8.596;2023-02-22T15:35:37;28.42;;;25.55;;
62880;SDS011;48969;49.934;8.596;2023-02-22T15:38:15;28.73;;;25.75;;
62880;SDS011;48969;49.934;8.596;2023-02-22T15:40:41;29.33;;;26.45;;
62880;SDS011;48969;49.934;8.596;2023-02-22T15:43:19;29.65;;;26.85;;
62880;SDS011;48969;49.934;8.596;2023-02-22T15:45:48;28.90;;;26.00;;
62880;SDS011;48969;49.934;8.596;2023-02-22T15:48:15;28.73;;;25.92;;
62880;SDS011;48969;49.934;8.596;2023-02-22T15:50:48;29.27;;;26.27;;
62880;SDS011;48969;49.934;8.596;2023-02-22T15:53:26;28.75;;;25.75;;
62880;SDS011;48969;49.934;8.596;2023-02-22T15:55:57;28.38;;;25.48;;
62880;SDS011;48969;49.934;8.596;2023-02-22T15:58:23;30.83;;;27.92;;
62880;SDS011;48969;49.934;8.596;2023-02-22T16:00:59;30.05;;;26.92;;
62880;SDS011;48969;49.934;8.596;2023-02-22T16:03:26;28.42;;;25.63;;
62880;SDS011;48969;49.934;8.596;2023-02-22T16:05:53;31.77;;;28.60;;
62880;SDS011;48969;49.934;8.596;2023-02-22T16:08:21;29.17;;;26.35;;
62880;SDS011;48969;49.934;8.596;2023-02-22T16:10:51;30.20;;;27.20;;
62880;SDS011;48969;49.934;8.596;2023-02-22T16:13:32;30.08;;;27.13;;
62880;SDS011;48969;49.934;8.596;2023-02-22T16:16:01;31.17;;;28.02;;
62880;SDS011;48969;49.934;8.596;2023-02-22T16:18:34;30.60;;;27.60;;
62880;SDS011;48969;49.934;8.596;2023-02-22T16:23:25;30.33;;;27.23;;
62880;SDS011;48969;49.934;8.596;2023-02-22T16:26:01;30.63;;;27.50;;
62880;SDS011;48969;49.934;8.596;2023-02-22T16:28:27;32.55;;;29.10;;
62880;SDS011;48969;49.934;8.596;2023-02-22T16:30:58;30.98;;;27.88;;
62880;SDS011;48969;49.934;8.596;2023-02-22T16:33:23;30.77;;;27.77;;
62880;SDS011;48969;49.934;8.596;2023-02-22T16:35:53;32.65;;;29.38;;
62880;SDS011;48969;49.934;8.596;2023-02-22T16:38:21;30.63;;;27.77;;
62880;SDS011;48969;49.934;8.596;2023-02-22T16:43:16;31.88;;;28.70;;
62880;SDS011;48969;49.934;8.596;2023-02-22T16:45:41;30.70;;;27.55;;
62880;SDS011;48969;49.934;8.596;2023-02-22T16:48:18;31.35;;;28.20;;
62880;SDS011;48969;49.934;8.596;2023-02-22T16:50:44;32.97;;;29.67;;
62880;SDS011;48969;49.934;8.596;2023-02-22T16:53:09;31.00;;;27.90;;
62880;SDS011;48969;49.934;8.596;2023-02-22T16:55:35;31.60;;;28.33;;
62880;SDS011;48969;49.934;8.596;2023-02-22T16:58:00;30.00;;;27.02;;
62880;SDS011;48969;49.934;8.596;2023-02-22T17:00:26;33.15;;;29.67;;
62880;SDS011;48969;49.934;8.596;2023-02-22T17:03:01;33.88;;;30.50;;
62880;SDS011;48969;49.934;8.596;2023-02-22T17:05:30;31.38;;;28.17;;
62880;SDS011;48969;49.934;8.596;2023-02-22T17:07:56;31.38;;;28.25;;
62880;SDS011;48969;49.934;8.596;2023-02-22T17:10:21;32.67;;;29.45;;
62880;SDS011;48969;49.934;8.596;2023-02-22T17:12:47;31.60;;;28.30;;
62880;SDS011;48969;49.934;8.596;2023-02-22T17:15:15;32.40;;;29.00;;